createdAt,value
2022-10-03T00:02:01.034Z,11.58
2022-10-03T00:04:19.351Z,11.56
2022-10-03T00:06:40.261Z,11.54
2022-10-03T00:09:10.251Z,11.55
2022-10-03T00:11:26.872Z,11.54
2022-10-03T00:13:42.078Z,11.52
2022-10-03T00:15:54.905Z,11.50
2022-10-03T00:18:06.708Z,11.48
2022-10-03T00:20:14.536Z,11.45
2022-10-03T00:22:31.701Z,11.50
2022-10-03T00:24:48.491Z,11.41
2022-10-03T00:26:57.797Z,11.37
2022-10-03T00:29:31.008Z,11.30
2022-10-03T00:31:46.196Z,11.26
2022-10-03T00:34:04.041Z,11.25
2022-10-03T00:36:14.855Z,11.26
2022-10-03T00:38:28.447Z,11.24
2022-10-03T00:40:55.850Z,11.22
2022-10-03T00:43:41.796Z,11.19
2022-10-03T00:46:13.850Z,11.20
2022-10-03T00:48:41.646Z,11.18
2022-10-03T00:51:00.363Z,11.17
2022-10-03T00:53:20.829Z,11.22
2022-10-03T00:55:34.320Z,11.21
2022-10-03T00:57:53.764Z,11.19
2022-10-03T01:00:15.536Z,11.21
2022-10-03T01:02:30.908Z,11.21
2022-10-03T01:04:50.459Z,11.24
2022-10-03T01:07:05.907Z,11.25
2022-10-03T01:09:38.761Z,11.34
2022-10-03T01:11:54.986Z,11.39
2022-10-03T01:14:11.363Z,11.44
2022-10-03T01:16:22.522Z,11.48
2022-10-03T01:18:41.237Z,11.51
2022-10-03T01:20:53.738Z,11.58
2022-10-03T01:23:14.130Z,11.62
2022-10-03T01:25:20.650Z,11.65
2022-10-03T01:27:59.536Z,11.72
2022-10-03T01:30:23.789Z,11.70
2022-10-03T01:32:34.370Z,11.70
2022-10-03T01:34:43.644Z,11.73
2022-10-03T01:36:55.498Z,11.75
2022-10-03T01:39:02.491Z,11.78
2022-10-03T01:41:11.718Z,11.83
2022-10-03T01:43:21.072Z,11.84
2022-10-03T01:45:32.968Z,11.84
2022-10-03T01:47:38.595Z,11.82
2022-10-03T01:49:47.950Z,11.82
2022-10-03T01:52:01.132Z,11.82
2022-10-03T01:54:14.961Z,11.83
2022-10-03T01:56:26.808Z,11.80
2022-10-03T01:58:34.543Z,11.79
2022-10-03T02:00:54.972Z,11.79
2022-10-03T02:03:09.202Z,11.77
2022-10-03T02:05:19.286Z,11.76
2022-10-03T02:07:29.411Z,11.77
2022-10-03T02:09:45.098Z,11.78
2022-10-03T02:12:01.389Z,11.77
2022-10-03T02:14:21.285Z,11.78
2022-10-03T02:16:34.724Z,11.76
2022-10-03T02:18:46.237Z,11.74
2022-10-03T02:20:52.211Z,11.68
2022-10-03T02:22:57.228Z,11.54
2022-10-03T02:25:10.906Z,11.51
2022-10-03T02:27:52.783Z,11.41
2022-10-03T02:30:19.872Z,11.41
2022-10-03T02:33:11.555Z,11.45
2022-10-03T02:35:35.740Z,11.45
2022-10-03T02:37:58.546Z,11.42
2022-10-03T02:40:30.234Z,11.42
2022-10-03T02:43:19.400Z,11.40
2022-10-03T02:45:51.756Z,11.45
2022-10-03T02:48:31.786Z,11.46
2022-10-03T02:51:21.879Z,11.44
2022-10-03T02:54:03.319Z,11.48
2022-10-03T02:56:44.608Z,11.50
2022-10-03T02:59:13.009Z,11.50
2022-10-03T03:01:44.888Z,11.52
2022-10-03T03:04:23.062Z,11.53
2022-10-03T03:06:56.491Z,11.55
2022-10-03T03:09:19.117Z,11.57
2022-10-03T03:11:46.984Z,11.58
2022-10-03T03:14:20.521Z,11.62
2022-10-03T03:16:53.172Z,11.62
2022-10-03T03:19:13.311Z,11.64
2022-10-03T03:21:35.718Z,11.64
2022-10-03T03:24:15.417Z,11.62
2022-10-03T03:26:42.099Z,11.62
2022-10-03T03:28:55.461Z,11.61
2022-10-03T03:31:11.000Z,11.62
2022-10-03T03:33:23.762Z,11.66
2022-10-03T03:35:40.834Z,11.61
2022-10-03T03:37:52.276Z,11.63
2022-10-03T03:40:13.236Z,11.64
2022-10-03T03:42:49.686Z,11.64
2022-10-03T03:45:08.456Z,11.74
2022-10-03T03:47:31.354Z,11.69
2022-10-03T03:49:47.688Z,11.75
2022-10-03T03:52:01.403Z,11.72
2022-10-03T03:54:23.341Z,11.66
2022-10-03T03:56:41.097Z,11.59
2022-10-03T03:58:51.245Z,11.56
2022-10-03T04:01:12.626Z,11.51
2022-10-03T04:03:35.599Z,11.46
2022-10-03T04:06:05.796Z,11.43
2022-10-03T04:08:35.673Z,11.39
2022-10-03T04:10:51.055Z,11.31
2022-10-03T04:13:26.118Z,11.27
2022-10-03T04:15:42.109Z,11.26
2022-10-03T04:18:29.199Z,11.21
2022-10-03T04:20:51.296Z,11.22
2022-10-03T04:23:09.087Z,11.23
2022-10-03T04:25:26.309Z,11.22
2022-10-03T04:27:54.906Z,11.24
2022-10-03T04:30:09.329Z,11.23
2022-10-03T04:32:27.734Z,11.19
2022-10-03T04:34:47.551Z,11.12
2022-10-03T04:37:04.040Z,11.13
2022-10-03T04:39:17.175Z,11.11
2022-10-03T04:41:32.426Z,11.12
2022-10-03T04:43:44.084Z,11.15
2022-10-03T04:46:00.026Z,11.15
2022-10-03T04:48:12.854Z,11.18
2022-10-03T04:50:26.769Z,11.18
2022-10-03T04:52:39.314Z,11.14
2022-10-03T04:54:51.015Z,11.14
2022-10-03T04:57:02.442Z,11.08
2022-10-03T04:59:24.742Z,11.03
2022-10-03T05:01:34.800Z,10.99
2022-10-03T05:03:46.952Z,10.92
2022-10-03T05:05:55.014Z,10.87
2022-10-03T05:08:13.580Z,10.85
2022-10-03T05:10:30.949Z,10.83
2022-10-03T05:12:41.974Z,10.85
2022-10-03T05:15:02.540Z,10.87
2022-10-03T05:17:19.625Z,10.91
2022-10-03T05:19:48.590Z,10.92
2022-10-03T05:22:01.098Z,10.96
2022-10-03T05:24:18.122Z,10.98
2022-10-03T05:26:44.726Z,11.01
2022-10-03T05:28:56.914Z,11.00
2022-10-03T05:31:05.456Z,11.04
2022-10-03T05:33:18.763Z,11.05
2022-10-03T05:35:30.238Z,11.04
2022-10-03T05:38:04.187Z,11.01
2022-10-03T05:40:17.274Z,11.02
2022-10-03T05:43:02.387Z,11.01
2022-10-03T05:45:23.435Z,11.05
2022-10-03T05:47:50.373Z,11.03
2022-10-03T05:50:18.399Z,11.05
2022-10-03T05:52:44.263Z,11.02
2022-10-03T05:55:12.771Z,11.00
2022-10-03T05:57:41.544Z,10.99
2022-10-03T06:00:07.659Z,11.01
2022-10-03T06:02:39.901Z,11.01
2022-10-03T06:05:03.609Z,11.03
2022-10-03T06:07:19.381Z,10.96
2022-10-03T06:09:42.863Z,11.03
2022-10-03T06:12:00.088Z,11.00
2022-10-03T06:14:24.349Z,11.04
2022-10-03T06:16:37.915Z,11.01
2022-10-03T06:19:30.519Z,11.02
2022-10-03T06:22:00.602Z,11.03
2022-10-03T06:24:35.505Z,10.98
2022-10-03T06:26:54.304Z,11.02
2022-10-03T06:29:25.011Z,11.06
2022-10-03T06:32:07.144Z,10.95
2022-10-03T06:34:40.072Z,10.87
2022-10-03T06:37:13.843Z,10.87
2022-10-03T06:39:56.480Z,10.91
2022-10-03T06:42:33.877Z,11.00
2022-10-03T06:44:55.111Z,10.97
2022-10-03T06:47:24.751Z,11.03
2022-10-03T06:50:16.652Z,11.07
2022-10-03T06:52:41.314Z,10.92
2022-10-03T06:55:13.953Z,11.06
2022-10-03T06:57:48.012Z,11.14
2022-10-03T07:00:06.923Z,11.16
2022-10-03T07:02:43.015Z,11.22
2022-10-03T07:05:21.687Z,11.24
2022-10-03T07:07:56.363Z,11.31
2022-10-03T07:10:20.003Z,11.42
2022-10-03T07:12:54.702Z,11.42
2022-10-03T07:15:38.102Z,11.50
2022-10-03T07:18:07.126Z,11.52
2022-10-03T07:20:49.366Z,11.56
2022-10-03T07:23:22.380Z,11.53
2022-10-03T07:25:45.967Z,11.51
2022-10-03T07:28:01.072Z,11.51
2022-10-03T07:30:10.634Z,11.61
2022-10-03T07:32:39.090Z,11.67
2022-10-03T07:35:17.844Z,11.70
2022-10-03T07:37:54.854Z,11.74
2022-10-03T07:40:26.999Z,11.81
2022-10-03T07:42:46.918Z,11.76
2022-10-03T07:45:25.035Z,11.74
2022-10-03T07:47:53.944Z,11.71
2022-10-03T07:50:31.152Z,11.73
2022-10-03T07:53:02.464Z,11.76
2022-10-03T07:55:37.402Z,11.76
2022-10-03T07:58:07.721Z,11.76
2022-10-03T08:00:17.883Z,11.76
2022-10-03T08:03:11.101Z,11.76
2022-10-03T08:05:25.226Z,11.79
2022-10-03T08:07:54.244Z,11.88
2022-10-03T08:10:17.085Z,11.88
2022-10-03T08:12:41.919Z,11.93
2022-10-03T08:14:56.951Z,11.98
2022-10-03T08:17:17.206Z,11.99
2022-10-03T08:19:34.101Z,12.03
2022-10-03T08:21:53.348Z,12.02
2022-10-03T08:24:25.199Z,12.00
2022-10-03T08:26:42.579Z,12.06
2022-10-03T08:29:08.687Z,12.04
2022-10-03T08:31:33.123Z,12.07
2022-10-03T08:33:53.729Z,12.11
2022-10-03T08:36:42.538Z,12.14
2022-10-03T08:39:07.656Z,12.23
2022-10-03T08:41:47.010Z,12.30
2022-10-03T08:44:46.657Z,12.26
2022-10-03T08:47:14.067Z,12.27
2022-10-03T08:49:44.226Z,12.31
2022-10-03T08:52:01.350Z,12.34
2022-10-03T08:54:24.737Z,12.37
2022-10-03T08:56:43.999Z,12.35
2022-10-03T08:59:11.530Z,12.36
2022-10-03T09:01:42.307Z,12.38
2022-10-03T09:04:35.805Z,12.41
2022-10-03T09:07:20.108Z,12.45
2022-10-03T09:09:45.631Z,12.50
2022-10-03T09:12:24.867Z,12.58
2022-10-03T09:14:51.980Z,12.63
2022-10-03T09:17:09.331Z,12.66
2022-10-03T09:19:41.662Z,12.66
2022-10-03T09:22:09.568Z,12.77
2022-10-03T09:24:55.141Z,12.80
2022-10-03T09:27:31.577Z,12.82
2022-10-03T09:29:52.584Z,12.90
2022-10-03T09:32:32.231Z,12.98
2022-10-03T09:35:07.201Z,13.03
2022-10-03T09:37:27.347Z,13.03
2022-10-03T09:40:17.240Z,13.10
2022-10-03T09:43:06.384Z,13.15
2022-10-03T09:45:26.643Z,13.18
2022-10-03T09:47:59.693Z,13.23
2022-10-03T09:50:53.036Z,13.26
2022-10-03T09:53:23.952Z,13.23
2022-10-03T09:55:41.579Z,13.19
2022-10-03T09:58:04.143Z,13.14
2022-10-03T10:00:27.683Z,13.13
2022-10-03T10:03:03.935Z,13.14
2022-10-03T10:05:37.617Z,13.16
2022-10-03T10:08:11.098Z,13.17
2022-10-03T10:10:49.534Z,13.23
2022-10-03T10:13:13.010Z,13.25
2022-10-03T10:15:31.055Z,13.37
2022-10-03T10:18:13.608Z,13.33
2022-10-03T10:20:37.480Z,13.29
2022-10-03T10:23:13.238Z,13.32
2022-10-03T10:25:29.894Z,13.32
2022-10-03T10:28:08.119Z,13.39
2022-10-03T10:30:27.567Z,13.36
2022-10-03T10:33:02.929Z,13.34
2022-10-03T10:35:53.057Z,13.27
2022-10-03T10:38:18.859Z,13.25
2022-10-03T10:40:47.861Z,13.23
2022-10-03T10:43:40.489Z,13.20
2022-10-03T10:46:06.810Z,13.22
2022-10-03T10:48:45.585Z,13.17
2022-10-03T10:51:16.714Z,13.16
2022-10-03T10:53:55.772Z,13.12
2022-10-03T10:56:28.255Z,13.13
2022-10-03T10:59:32.420Z,13.15
2022-10-03T11:02:08.246Z,13.19
2022-10-03T11:04:54.459Z,13.27
2022-10-03T11:07:40.837Z,13.19
2022-10-03T11:10:31.009Z,13.22
2022-10-03T11:13:20.235Z,13.20
2022-10-03T11:15:54.177Z,13.31
2022-10-03T11:18:24.625Z,13.58
2022-10-03T11:21:05.778Z,13.68
2022-10-03T11:23:41.947Z,13.76
2022-10-03T11:26:24.140Z,13.92
2022-10-03T11:29:10.839Z,14.00
2022-10-03T11:31:49.723Z,14.04
2022-10-03T11:34:22.474Z,14.03
2022-10-03T11:36:57.491Z,14.01
2022-10-03T11:39:05.894Z,13.98
2022-10-03T11:41:21.126Z,13.96
2022-10-03T11:44:05.020Z,13.93
2022-10-03T11:46:35.935Z,14.00
2022-10-03T11:48:42.237Z,13.98
2022-10-03T11:50:52.652Z,13.99
2022-10-03T11:53:10.429Z,14.19
2022-10-03T11:55:26.275Z,14.05
2022-10-03T11:57:33.432Z,14.01
2022-10-03T11:59:48.272Z,14.18
2022-10-03T12:02:14.778Z,14.17
2022-10-03T12:04:25.866Z,14.12
2022-10-03T12:07:05.137Z,14.18
2022-10-03T12:09:19.012Z,14.30
2022-10-03T12:11:27.522Z,14.41
2022-10-03T12:13:36.950Z,14.53
2022-10-03T12:15:44.294Z,14.55
2022-10-03T12:17:56.428Z,14.96
2022-10-03T12:20:05.913Z,15.15
2022-10-03T12:22:20.445Z,15.03
2022-10-03T12:24:27.271Z,15.06
2022-10-03T12:26:45.139Z,15.27
2022-10-03T12:28:54.971Z,15.30
2022-10-03T12:31:02.425Z,15.39
2022-10-03T12:33:35.115Z,15.44
2022-10-03T12:35:45.433Z,15.43
2022-10-03T12:38:03.415Z,15.39
2022-10-03T12:40:16.850Z,15.36
2022-10-03T12:42:29.928Z,15.37
2022-10-03T12:44:45.248Z,15.28
2022-10-03T12:47:02.988Z,15.20
2022-10-03T12:49:12.064Z,15.16
2022-10-03T12:51:24.331Z,15.12
2022-10-03T12:53:41.683Z,15.08
2022-10-03T12:55:56.517Z,15.18
2022-10-03T12:58:08.478Z,15.26
2022-10-03T13:00:20.818Z,15.34
2022-10-03T13:02:29.821Z,15.42
2022-10-03T13:04:42.678Z,15.47
2022-10-03T13:07:04.423Z,15.48
2022-10-03T13:09:23.103Z,15.44
2022-10-03T13:11:37.236Z,15.39
2022-10-03T13:13:55.260Z,15.40
2022-10-03T13:16:18.514Z,15.54
2022-10-03T13:18:47.605Z,15.73
2022-10-03T13:20:59.871Z,15.85
2022-10-03T13:23:11.748Z,15.91
2022-10-03T13:25:19.641Z,15.98
2022-10-03T13:27:37.186Z,16.07
2022-10-03T13:29:44.275Z,16.17
2022-10-03T13:32:07.463Z,16.30
2022-10-03T13:34:19.536Z,16.42
2022-10-03T13:36:27.410Z,16.61
2022-10-03T13:38:58.287Z,16.91
2022-10-03T13:41:11.120Z,17.14
2022-10-03T13:43:19.615Z,17.40
2022-10-03T13:45:25.211Z,17.64
2022-10-03T13:47:46.390Z,17.76
2022-10-03T13:49:53.577Z,17.88
2022-10-03T13:52:02.319Z,17.95
2022-10-03T13:54:09.181Z,18.13
2022-10-03T13:56:21.246Z,18.26
2022-10-03T13:58:39.153Z,18.56
2022-10-03T14:01:11.313Z,18.68
2022-10-03T14:03:26.327Z,18.84
2022-10-03T14:05:55.161Z,18.97
2022-10-03T14:08:07.555Z,19.08
2022-10-03T14:10:30.337Z,19.17
2022-10-03T14:12:55.692Z,19.26
2022-10-03T14:15:18.454Z,19.37
2022-10-03T14:17:30.663Z,19.35
2022-10-03T14:19:41.536Z,19.31
2022-10-03T14:22:07.574Z,19.21
2022-10-03T14:24:26.365Z,19.20
2022-10-03T14:26:38.664Z,19.15
2022-10-03T14:28:51.390Z,19.14
2022-10-03T14:31:06.685Z,19.04
2022-10-03T14:33:22.227Z,19.02
2022-10-03T14:35:38.650Z,19.10
2022-10-03T14:37:47.202Z,19.13
2022-10-03T14:40:03.328Z,19.19
2022-10-03T14:42:33.228Z,19.25
2022-10-03T14:44:42.234Z,19.23
2022-10-03T14:46:51.377Z,19.21
2022-10-03T14:48:59.792Z,19.17
2022-10-03T14:51:11.372Z,19.14
2022-10-03T14:53:20.256Z,19.00
2022-10-03T14:55:29.993Z,18.87
2022-10-03T14:57:47.856Z,18.75
2022-10-03T15:00:00.068Z,18.59
2022-10-03T15:02:26.326Z,18.44
2022-10-03T15:04:33.425Z,18.30
2022-10-03T15:06:54.311Z,18.18
2022-10-03T15:08:59.902Z,18.08
2022-10-03T15:11:06.313Z,18.03
2022-10-03T15:13:10.599Z,18.02
2022-10-03T15:15:19.431Z,18.02
2022-10-03T15:17:24.930Z,18.02
2022-10-03T15:19:32.603Z,18.01
2022-10-03T15:21:36.073Z,17.95
2022-10-03T15:23:43.619Z,17.90
2022-10-03T15:25:53.015Z,17.87
2022-10-03T15:27:59.395Z,17.87
2022-10-03T15:30:05.613Z,17.87
2022-10-03T15:32:22.635Z,17.86
2022-10-03T15:34:31.308Z,17.80
2022-10-03T15:36:38.523Z,17.70
2022-10-03T15:38:44.192Z,17.56
2022-10-03T15:40:53.578Z,17.45
2022-10-03T15:43:04.551Z,17.34
2022-10-03T15:45:08.901Z,17.24
2022-10-03T15:47:16.794Z,17.15
2022-10-03T15:49:26.081Z,17.06
2022-10-03T15:51:32.757Z,16.99
2022-10-03T15:53:37.702Z,16.90
2022-10-03T15:55:46.684Z,16.81
2022-10-03T15:57:53.823Z,16.74
2022-10-03T16:00:02.952Z,16.65
2022-10-03T16:02:16.435Z,16.56
2022-10-03T16:04:23.993Z,16.49
2022-10-03T16:06:36.013Z,16.42
2022-10-03T16:08:53.700Z,16.37
2022-10-03T16:11:06.588Z,16.29
2022-10-03T16:13:26.475Z,16.20
2022-10-03T16:15:43.546Z,16.13
2022-10-03T16:17:49.963Z,16.08
2022-10-03T16:19:55.961Z,16.03
2022-10-03T16:22:20.351Z,16.01
2022-10-03T16:24:35.205Z,15.93
2022-10-03T16:26:50.417Z,15.85
2022-10-03T16:29:05.012Z,15.79
2022-10-03T16:31:15.037Z,15.72
2022-10-03T16:33:21.299Z,15.67
2022-10-03T16:35:33.669Z,15.62
2022-10-03T16:37:41.807Z,15.56
2022-10-03T16:39:51.873Z,15.51
2022-10-03T16:41:56.260Z,15.44
2022-10-03T16:44:01.652Z,15.38
2022-10-03T16:46:09.839Z,15.33
2022-10-03T16:48:33.215Z,15.26
2022-10-03T16:50:38.941Z,15.22
2022-10-03T16:52:43.930Z,15.14
2022-10-03T16:54:47.913Z,15.10
2022-10-03T16:56:58.111Z,15.03
2022-10-03T16:59:07.410Z,14.97
2022-10-03T17:01:26.878Z,14.89
2022-10-03T17:03:37.233Z,14.83
2022-10-03T17:05:47.146Z,14.79
2022-10-03T17:07:52.774Z,14.76
2022-10-03T17:09:57.063Z,14.74
2022-10-03T17:12:01.638Z,14.71
2022-10-03T17:14:08.121Z,14.67
2022-10-03T17:16:17.679Z,14.63
2022-10-03T17:18:26.170Z,14.57
2022-10-03T17:20:40.429Z,14.53
2022-10-03T17:22:49.827Z,14.53
2022-10-03T17:24:59.318Z,14.44
2022-10-03T17:27:09.243Z,14.39
2022-10-03T17:29:17.759Z,14.29
2022-10-03T17:31:30.234Z,14.24
2022-10-03T17:33:42.659Z,14.15
2022-10-03T17:35:54.821Z,14.11
2022-10-03T17:38:37.263Z,14.03
2022-10-03T17:40:51.469Z,13.96
2022-10-03T17:43:00.075Z,13.91
2022-10-03T17:45:13.299Z,13.87
2022-10-03T17:47:23.181Z,13.83
2022-10-03T17:49:41.449Z,13.75
2022-10-03T17:51:48.125Z,13.71
2022-10-03T17:53:57.686Z,13.63
2022-10-03T17:56:05.870Z,13.57
2022-10-03T17:58:14.576Z,13.54
2022-10-03T18:00:21.293Z,13.54
2022-10-03T18:02:31.054Z,13.52
2022-10-03T18:04:41.386Z,13.45
2022-10-03T18:06:47.474Z,13.35
2022-10-03T18:08:53.394Z,13.31
2022-10-03T18:10:58.795Z,13.27
2022-10-03T18:13:03.767Z,13.21
2022-10-03T18:15:48.760Z,13.14
2022-10-03T18:18:08.790Z,13.15
2022-10-03T18:20:27.369Z,13.13
2022-10-03T18:22:37.178Z,13.06
2022-10-03T18:24:53.125Z,13.16
2022-10-03T18:27:10.403Z,12.96
2022-10-03T18:29:23.566Z,12.82
2022-10-03T18:31:27.854Z,12.76
2022-10-03T18:33:37.276Z,12.71
2022-10-03T18:35:41.475Z,12.68
2022-10-03T18:38:12.797Z,12.50
2022-10-03T18:40:21.319Z,12.53
2022-10-03T18:42:28.214Z,12.51
2022-10-03T18:44:33.903Z,12.52
2022-10-03T18:46:42.067Z,12.51
2022-10-03T18:49:15.739Z,12.51
2022-10-03T18:51:26.170Z,12.51
2022-10-03T18:53:35.674Z,12.48
2022-10-03T18:55:44.917Z,12.46
2022-10-03T18:57:56.246Z,12.43
2022-10-03T19:00:05.463Z,12.42
2022-10-03T19:02:18.625Z,12.38
2022-10-03T19:04:36.131Z,12.33
2022-10-03T19:06:42.541Z,12.30
2022-10-03T19:08:51.726Z,12.25
2022-10-03T19:11:02.714Z,12.24
2022-10-03T19:13:16.184Z,12.24
2022-10-03T19:15:24.505Z,12.23
2022-10-03T19:17:34.757Z,12.21
2022-10-03T19:19:50.182Z,12.18
2022-10-03T19:21:53.643Z,12.17
2022-10-03T19:24:05.287Z,12.18
2022-10-03T19:26:13.894Z,12.15
2022-10-03T19:28:20.856Z,12.14
2022-10-03T19:30:25.892Z,12.13
2022-10-03T19:32:35.371Z,12.06
2022-10-03T19:34:40.288Z,12.03
2022-10-03T19:36:43.503Z,12.01
2022-10-03T19:38:48.277Z,11.98
2022-10-03T19:41:00.154Z,11.98
2022-10-03T19:43:07.416Z,11.98
2022-10-03T19:45:14.634Z,11.97
2022-10-03T19:47:18.874Z,11.95
2022-10-03T19:49:28.434Z,11.91
2022-10-03T19:51:31.204Z,11.88
2022-10-03T19:53:33.849Z,11.86
2022-10-03T19:55:39.052Z,11.81
2022-10-03T19:57:46.143Z,11.73
2022-10-03T19:59:53.875Z,11.67
2022-10-03T20:01:56.604Z,11.63
2022-10-03T20:04:00.654Z,11.58
2022-10-03T20:06:06.940Z,11.58
2022-10-03T20:08:22.824Z,11.52
2022-10-03T20:10:36.900Z,11.50
2022-10-03T20:12:43.901Z,11.51
2022-10-03T20:14:52.209Z,11.46
2022-10-03T20:16:57.979Z,11.43
2022-10-03T20:19:08.365Z,11.42
2022-10-03T20:21:13.364Z,11.40
2022-10-03T20:23:18.792Z,11.39
2022-10-03T20:25:32.449Z,11.34
2022-10-03T20:27:40.135Z,11.33
2022-10-03T20:29:49.357Z,11.30
2022-10-03T20:31:59.916Z,11.26
2022-10-03T20:34:06.875Z,11.25
2022-10-03T20:36:18.635Z,11.23
2022-10-03T20:38:30.260Z,11.22
2022-10-03T20:40:37.554Z,11.20
2022-10-03T20:42:46.723Z,11.17
2022-10-03T20:45:02.509Z,11.18
2022-10-03T20:47:11.689Z,11.11
2022-10-03T20:49:24.596Z,11.07
2022-10-03T20:51:40.387Z,11.04
2022-10-03T20:53:43.559Z,11.02
2022-10-03T20:55:51.212Z,11.01
2022-10-03T20:58:02.295Z,10.95
2022-10-03T21:00:10.322Z,10.85
2022-10-03T21:02:25.754Z,10.78
2022-10-03T21:04:33.892Z,10.78
2022-10-03T21:06:53.692Z,10.76
2022-10-03T21:08:57.977Z,10.75
2022-10-03T21:11:02.643Z,10.70
2022-10-03T21:13:09.566Z,10.71
2022-10-03T21:15:15.501Z,10.74
2022-10-03T21:17:21.136Z,10.73
2022-10-03T21:19:38.792Z,10.72
2022-10-03T21:21:46.642Z,10.70
2022-10-03T21:23:54.711Z,10.76
2022-10-03T21:26:01.403Z,10.73
2022-10-03T21:28:05.468Z,10.73
2022-10-03T21:30:18.586Z,10.71
2022-10-03T21:32:39.516Z,10.69
2022-10-03T21:34:49.576Z,10.67
2022-10-03T21:37:03.269Z,10.69
2022-10-03T21:39:17.604Z,10.66
2022-10-03T21:41:29.327Z,10.58
2022-10-03T21:43:45.194Z,10.55
2022-10-03T21:45:55.533Z,10.54
2022-10-03T21:48:04.627Z,10.51
2022-10-03T21:50:12.360Z,10.50
2022-10-03T21:52:45.711Z,10.47
2022-10-03T21:55:00.039Z,10.39
2022-10-03T21:57:12.888Z,10.33
2022-10-03T21:59:44.282Z,10.30
2022-10-03T22:01:53.643Z,10.30
2022-10-03T22:04:09.054Z,10.24
2022-10-03T22:06:20.163Z,10.21
2022-10-03T22:08:24.804Z,10.20
2022-10-03T22:10:30.640Z,10.16
2022-10-03T22:12:43.567Z,10.16
2022-10-03T22:14:53.713Z,10.16
2022-10-03T22:17:06.178Z,10.16
2022-10-03T22:19:20.961Z,10.17
2022-10-03T22:21:27.375Z,10.11
2022-10-03T22:23:39.486Z,10.10
2022-10-03T22:25:52.353Z,10.10
2022-10-03T22:28:02.491Z,10.10
2022-10-03T22:30:09.656Z,10.08
2022-10-03T22:32:17.925Z,10.01
2022-10-03T22:34:36.640Z,9.96
2022-10-03T22:36:40.378Z,9.93
2022-10-03T22:38:43.283Z,9.93
2022-10-03T22:40:50.454Z,9.89
2022-10-03T22:42:56.902Z,9.88
2022-10-03T22:44:59.816Z,9.85
2022-10-03T22:47:07.453Z,9.88
2022-10-03T22:49:17.368Z,9.87
2022-10-03T22:51:23.361Z,9.86
2022-10-03T22:53:32.376Z,9.86
2022-10-03T22:55:35.208Z,9.82
2022-10-03T22:57:40.261Z,9.85
2022-10-03T22:59:48.638Z,9.79
2022-10-03T23:01:53.230Z,9.83
2022-10-03T23:03:56.539Z,9.77
2022-10-03T23:06:30.499Z,9.74
2022-10-03T23:08:47.872Z,9.56
2022-10-03T23:10:56.362Z,9.53
2022-10-03T23:13:05.058Z,9.53
2022-10-03T23:15:11.117Z,9.50
2022-10-03T23:17:36.974Z,9.49
2022-10-03T23:19:51.643Z,9.43
2022-10-03T23:21:57.867Z,9.41
2022-10-03T23:24:06.254Z,9.35
2022-10-03T23:26:39.571Z,9.34
2022-10-03T23:28:54.541Z,9.35
2022-10-03T23:30:57.148Z,9.33
2022-10-03T23:33:00.800Z,9.36
2022-10-03T23:35:20.221Z,9.38
2022-10-03T23:37:40.919Z,9.43
2022-10-03T23:39:46.022Z,9.37
2022-10-03T23:42:00.954Z,9.37
2022-10-03T23:44:03.852Z,9.40
2022-10-03T23:46:12.516Z,9.35
2022-10-03T23:48:19.667Z,9.35
2022-10-03T23:50:25.371Z,9.33
2022-10-03T23:52:32.642Z,9.29
2022-10-03T23:54:35.362Z,9.24
2022-10-03T23:56:42.162Z,9.21
2022-10-03T23:58:56.951Z,9.13
